Time;durP1;ratioP1;P1;durP2;ratioP2;P2;SDS_P1;SDS_P2;PMS_P1;PMS_P2;Temp;Humidity;BMP_temperature;BMP_pressure;BME280_temperature;BME280_humidity;BME280_pressure;Samples;Min_cycle;Max_cycle;Signal;HPM_P1;HPM_P2
2023/05/04 00:01:30;;;;;;;;;6.00;5.00;;;;;18.29;42.52;100940.72;5076552;27;45996;-77
2023/05/04 00:03:56;;;;;;;;;7.00;7.00;;;;;18.33;42.77;100941.25;5076487;27;45775;-80
2023/05/04 00:06:21;;;;;;;;;6.25;5.00;;;;;18.28;42.18;100936.38;5076347;27;45806;-78
2023/05/04 00:08:46;;;;;;;;;6.00;5.75;;;;;18.26;42.39;100924.25;5076537;27;46284;-78
2023/05/04 00:11:12;;;;;;;;;6.25;6.00;;;;;18.26;42.73;100929.56;5076251;27;46034;-78
2023/05/04 00:13:37;;;;;;;;;5.25;5.25;;;;;18.25;42.78;100909.31;5076424;27;45632;-79
2023/05/04 00:16:03;;;;;;;;;5.50;4.75;;;;;18.22;42.60;100906.97;5076443;27;45673;-78
2023/05/04 00:18:28;;;;;;;;;6.00;5.50;;;;;18.24;42.88;100905.00;5076224;28;45714;-79
2023/05/04 00:20:53;;;;;;;;;5.50;5.50;;;;;18.25;42.96;100906.66;5076231;27;45694;-78
2023/05/04 00:26:40;;;;;;;;;6.25;5.50;;;;;18.22;43.20;100913.13;5076083;28;45568;-78
2023/05/04 00:29:06;;;;;;;;;4.75;4.50;;;;;18.17;43.17;100906.59;5076870;27;45975;-74
2023/05/04 00:31:31;;;;;;;;;6.00;6.00;;;;;18.15;43.22;100890.81;5076805;28;45723;-75
2023/05/04 00:33:57;;;;;;;;;7.50;6.00;;;;;18.05;43.31;100892.72;5076839;27;45583;-78
2023/05/04 00:36:22;;;;;;;;;6.00;6.00;;;;;18.04;43.08;100894.53;5076332;27;45763;-79
2023/05/04 00:42:09;;;;;;;;;7.75;7.00;;;;;17.94;43.36;100893.75;5076048;28;45950;-80
2023/05/04 00:44:35;;;;;;;;;7.75;7.25;;;;;17.95;43.81;100897.25;5075947;27;45576;-77
2023/05/04 00:47:02;;;;;;;;;5.75;5.75;;;;;17.93;43.92;100893.91;5075809;27;45876;-80
2023/05/04 00:49:27;;;;;;;;;7.75;6.50;;;;;17.87;43.98;100876.78;5076003;28;46370;-80
2023/05/04 00:51:55;;;;;;;;;6.00;6.00;;;;;17.86;43.91;100884.91;5075491;28;46119;-78
2023/05/04 00:54:20;;;;;;;;;7.50;6.75;;;;;17.81;44.00;100877.41;5075725;28;45741;-80
2023/05/04 00:56:46;;;;;;;;;7.75;7.00;;;;;17.79;44.02;100878.50;5075747;27;45627;-78
2023/05/04 00:59:12;;;;;;;;;7.00;6.75;;;;;17.74;44.42;100862.22;5075456;27;46785;-80
2023/05/04 01:01:38;;;;;;;;;8.00;7.00;;;;;17.66;44.31;100870.91;5075344;27;45889;-80
2023/05/04 01:04:04;;;;;;;;;8.00;8.00;;;;;17.65;44.41;100874.56;5090608;27;45559;-78
2023/05/04 01:13:11;;;;;;;;;8.00;8.00;;;;;17.56;45.27;100865.63;5075342;28;45632;-81
2023/05/04 01:15:38;;;;;;;;;6.25;6.25;;;;;17.53;45.24;100862.47;5075944;27;45651;-79
2023/05/04 01:18:04;;;;;;;;;6.50;6.25;;;;;17.46;45.40;100859.56;5075908;28;45534;-76
2023/05/04 01:20:29;;;;;;;;;9.00;7.75;;;;;17.45;45.71;100860.53;5075325;27;45626;-76
2023/05/04 01:22:55;;;;;;;;;8.75;7.50;;;;;17.47;45.45;100850.63;5075405;28;45887;-79
2023/05/04 01:25:26;;;;;;;;;8.50;8.00;;;;;17.49;45.77;100859.25;5075410;28;45774;-78
2023/05/04 01:27:56;;;;;;;;;7.00;7.00;;;;;17.47;45.65;100860.41;5075464;27;45798;-79
2023/05/04 01:30:28;;;;;;;;;9.25;7.50;;;;;17.41;45.45;100856.50;5075162;27;46659;-80
2023/05/04 01:32:56;;;;;;;;;9.00;7.25;;;;;17.37;45.74;100852.50;5075051;28;46262;-81
2023/05/04 01:35:24;;;;;;;;;7.50;7.50;;;;;17.39;45.69;100847.88;5075130;27;45633;-79
2023/05/04 01:37:49;;;;;;;;;9.50;8.50;;;;;17.38;46.24;100843.53;5074956;28;45703;-76
2023/05/04 01:40:15;;;;;;;;;6.50;6.25;;;;;17.35;46.27;100846.50;5074835;27;46695;-80
2023/05/04 01:42:40;;;;;;;;;7.00;7.00;;;;;17.37;45.93;100843.72;5074848;27;45546;-77
2023/05/04 01:45:06;;;;;;;;;8.50;7.50;;;;;17.34;46.15;100844.81;5074817;27;45561;-77
2023/05/04 01:47:32;;;;;;;;;9.00;7.00;;;;;17.32;46.17;100843.31;5074825;27;45546;-75
2023/05/04 01:49:57;;;;;;;;;7.50;6.75;;;;;17.27;46.52;100832.34;5074625;27;46386;-75
2023/05/04 01:52:23;;;;;;;;;8.75;8.25;;;;;17.22;46.75;100826.66;5074758;27;46542;-79
2023/05/04 01:58:10;;;;;;;;;9.00;8.50;;;;;17.18;46.67;100840.16;5063192;28;45904;-77
2023/05/04 02:00:35;;;;;;;;;7.00;7.00;;;;;17.17;46.67;100837.66;5074436;27;46293;-76
2023/05/04 02:03:01;;;;;;;;;8.00;8.00;;;;;17.16;47.16;100841.31;5074246;27;46382;-78
2023/05/04 02:05:26;;;;;;;;;7.75;7.25;;;;;17.10;46.65;100839.25;5074731;27;45897;-79
2023/05/04 02:07:51;;;;;;;;;7.25;7.00;;;;;17.07;46.80;100839.50;5074647;27;45749;-77
2023/05/04 02:10:17;;;;;;;;;6.25;6.25;;;;;17.05;47.28;100837.03;5072992;28;47296;-78
2023/05/04 02:12:42;;;;;;;;;9.00;8.00;;;;;17.08;46.94;100841.19;5073785;27;46220;-80
2023/05/04 02:15:08;;;;;;;;;7.00;7.00;;;;;17.08;46.98;100841.19;5089992;27;45627;-79
2023/05/04 02:17:33;;;;;;;;;8.00;7.25;;;;;17.07;47.49;100837.69;5074446;27;45812;-79
2023/05/04 02:19:59;;;;;;;;;8.00;8.00;;;;;17.07;47.09;100842.16;5074386;27;45694;-79
2023/05/04 02:22:24;;;;;;;;;11.75;9.00;;;;;17.04;47.27;100830.06;5074234;27;46459;-78
2023/05/04 02:28:11;;;;;;;;;8.25;8.25;;;;;16.99;47.77;100820.88;5074087;28;45516;-80
2023/05/04 02:30:36;;;;;;;;;8.00;8.00;;;;;17.00;47.60;100826.03;5074193;27;45601;-77
2023/05/04 02:33:02;;;;;;;;;6.00;5.50;;;;;16.98;47.55;100821.84;5074114;27;45508;-76
2023/05/04 02:35:27;;;;;;;;;9.00;8.75;;;;;16.99;47.74;100820.88;5074332;27;45710;-78
2023/05/04 02:37:52;;;;;;;;;8.75;8.00;;;;;16.91;47.70;100826.06;5074732;27;45691;-81
2023/05/04 02:43:39;;;;;;;;;8.75;8.50;;;;;16.95;48.13;100819.50;5073832;28;45831;-79
2023/05/04 02:46:05;;;;;;;;;12.25;9.50;;;;;16.99;47.93;100826.19;5073820;28;45501;-80
2023/05/04 02:48:31;;;;;;;;;8.50;8.00;;;;;17.02;48.11;100831.16;5072616;28;45623;-79
2023/05/04 02:50:57;;;;;;;;;10.50;9.75;;;;;17.03;47.64;100823.09;5073777;27;45659;-80
2023/05/04 02:53:22;;;;;;;;;8.75;8.75;;;;;17.02;47.96;100825.88;5073693;27;45599;-81
2023/05/04 02:55:47;;;;;;;;;10.00;9.00;;;;;17.03;47.81;100817.78;5073976;28;45758;-80
2023/05/04 02:58:13;;;;;;;;;12.25;9.00;;;;;17.03;47.96;100822.25;5073863;27;45830;-81
2023/05/04 03:00:38;;;;;;;;;8.00;8.00;;;;;17.05;48.10;100817.66;5073662;27;45593;-81
2023/05/04 03:03:03;;;;;;;;;8.75;8.75;;;;;17.03;47.79;100814.31;5073713;27;46740;-80
2023/05/04 03:05:29;;;;;;;;;9.00;9.00;;;;;17.01;48.12;100810.97;5073907;27;45583;-81
2023/05/04 03:07:55;;;;;;;;;10.50;9.25;;;;;17.02;47.76;100804.69;5073766;27;45552;-79
2023/05/04 03:13:42;;;;;;;;;8.25;7.50;;;;;16.99;48.24;100802.34;5073829;28;45995;-77
2023/05/04 03:16:07;;;;;;;;;11.50;8.25;;;;;16.94;48.14;100808.09;5073655;27;45783;-77
2023/05/04 03:18:33;;;;;;;;;9.00;9.00;;;;;16.91;48.47;100795.13;5073752;27;45611;-78
2023/05/04 03:20:58;;;;;;;;;8.75;8.25;;;;;16.85;48.11;100798.34;5073364;28;45817;-79
2023/05/04 03:23:24;;;;;;;;;8.25;7.00;;;;;16.78;48.14;100792.81;5073428;27;46703;-78
2023/05/04 03:29:11;;;;;;;;;9.00;8.75;;;;;16.64;48.53;100793.25;5076887;28;45518;-75
2023/05/04 03:31:36;;;;;;;;;14.50;10.00;;;;;16.63;48.59;100796.88;5076674;27;45607;-76
2023/05/04 03:34:02;;;;;;;;;7.50;7.00;;;;;16.65;48.57;100792.28;5076966;27;45703;-75
2023/05/04 03:36:28;;;;;;;;;10.00;9.50;;;;;16.69;48.55;100788.38;5076953;27;45916;-80
2023/05/04 03:38:54;;;;;;;;;12.75;10.00;;;;;16.73;48.62;100787.09;5077072;27;45601;-79
2023/05/04 03:41:19;;;;;;;;;13.00;10.25;;;;;16.73;48.80;100784.44;5076735;28;45740;-79
2023/05/04 03:43:45;;;;;;;;;11.00;9.00;;;;;16.75;48.71;100786.97;5076689;27;45799;-76
2023/05/04 03:46:10;;;;;;;;;11.00;9.25;;;;;16.75;48.95;100782.50;5076684;27;45579;-76
2023/05/04 03:48:36;;;;;;;;;8.00;7.00;;;;;16.76;48.49;100780.69;5076838;27;45640;-76
2023/05/04 03:51:02;;;;;;;;;9.00;8.00;;;;;16.78;48.74;100794.63;5076694;28;45638;-75
2023/05/04 03:53:27;;;;;;;;;12.00;9.50;;;;;16.78;48.46;100787.53;5076560;28;45660;-75
2023/05/04 03:59:14;;;;;;;;;8.25;7.75;;;;;16.73;48.93;100781.00;5065741;28;45975;-76
2023/05/04 04:01:40;;;;;;;;;12.00;9.25;;;;;16.75;48.54;100774.56;5076507;28;46658;-78
2023/05/04 04:04:05;;;;;;;;;12.50;10.25;;;;;16.74;48.80;100764.13;5076313;27;46250;-77
2023/05/04 04:06:31;;;;;;;;;9.00;8.00;;;;;16.75;48.68;100776.38;5076504;27;45623;-78
2023/05/04 04:08:56;;;;;;;;;12.75;12.75;;;;;16.71;48.77;100767.06;5076819;27;45544;-77
2023/05/04 04:14:43;;;;;;;;;9.25;9.25;;;;;16.76;48.88;100770.13;5075985;28;45969;-77
2023/05/04 04:17:09;;;;;;;;;12.50;10.00;;;;;16.78;48.84;100774.31;5076133;27;45655;-78
2023/05/04 04:19:34;;;;;;;;;12.50;10.75;;;;;16.81;49.00;100769.69;5076412;27;45560;-77
2023/05/04 04:22:00;;;;;;;;;13.00;12.25;;;;;16.79;49.11;100780.41;5076290;27;45603;-77
2023/05/04 04:24:25;;;;;;;;;10.50;8.00;;;;;16.75;49.03;100779.03;5074266;28;46319;-79
2023/05/04 04:26:51;;;;;;;;;8.25;8.25;;;;;16.77;48.75;100780.56;5076196;27;45639;-78
2023/05/04 04:29:16;;;;;;;;;7.75;7.00;;;;;16.80;49.03;100774.13;5076393;27;45662;-79
2023/05/04 04:31:41;;;;;;;;;9.00;9.00;;;;;16.80;49.11;100776.78;5075957;27;46420;-77
2023/05/04 04:34:07;;;;;;;;;9.00;8.25;;;;;16.81;49.01;100756.44;5076075;27;45633;-78
2023/05/04 04:36:33;;;;;;;;;12.25;10.25;;;;;16.76;48.75;100749.78;5075453;27;45783;-78
2023/05/04 04:38:59;;;;;;;;;12.75;12.00;;;;;16.72;49.19;100755.53;5076270;27;45606;-76
2023/05/04 04:44:46;;;;;;;;;11.50;11.25;;;;;16.65;49.36;100742.03;5075720;28;45683;-75
2023/05/04 04:47:12;;;;;;;;;9.75;9.00;;;;;16.66;49.27;100743.69;5091277;27;45769;-77
2023/05/04 04:49:37;;;;;;;;;10.25;9.75;;;;;16.69;48.99;100740.75;5075994;28;45720;-78
2023/05/04 04:52:03;;;;;;;;;9.75;9.75;;;;;16.70;49.37;100742.44;5075634;27;45600;-78
2023/05/04 05:00:54;;;;;;;;;10.75;8.25;;;;;16.63;49.55;100725.44;5070135;28;45682;-81
2023/05/04 05:03:20;;;;;;;;;12.25;11.50;;;;;16.56;49.60;100719.06;5075390;27;47350;-79
2023/05/04 05:05:45;;;;;;;;;11.25;9.50;;;;;16.56;49.44;100726.16;5075447;27;45682;-78
2023/05/04 05:08:11;;;;;;;;;11.00;9.25;;;;;16.52;49.77;100720.31;5075465;27;45560;-78
2023/05/04 05:10:36;;;;;;;;;14.00;10.25;;;;;16.51;49.43;100726.59;5075597;27;45597;-80
2023/05/04 05:13:01;;;;;;;;;11.00;11.00;;;;;16.47;49.48;100714.63;5075587;27;45649;-77
2023/05/04 05:15:30;;;;;;;;;11.00;9.00;;;;;16.46;49.69;100722.72;5075632;27;46105;-79
2023/05/04 05:17:55;;;;;;;;;13.25;13.00;;;;;16.44;49.61;100714.09;5075612;27;45537;-79
2023/05/04 05:20:22;;;;;;;;;13.00;10.25;;;;;16.40;49.86;100716.19;5075562;28;45605;-80
2023/05/04 05:22:47;;;;;;;;;11.25;10.50;;;;;16.38;49.79;100711.03;5075371;28;46282;-74
2023/05/04 05:25:13;;;;;;;;;11.25;10.25;;;;;16.34;50.21;100714.94;5075397;27;45956;-76
2023/05/04 05:27:38;;;;;;;;;13.00;11.75;;;;;16.34;49.80;100714.13;5091998;27;46013;-78
2023/05/04 05:30:04;;;;;;;;;12.00;11.25;;;;;16.35;50.00;100721.91;5077193;28;45621;-78
2023/05/04 05:32:30;;;;;;;;;14.75;11.75;;;;;16.35;50.20;100732.50;5090708;27;47508;-80
2023/05/04 05:34:56;;;;;;;;;12.25;11.00;;;;;16.36;49.98;100730.66;5075056;27;46220;-80
2023/05/04 05:37:21;;;;;;;;;14.25;11.00;;;;;16.40;50.17;100728.56;5073635;28;45691;-79
2023/05/04 05:39:47;;;;;;;;;12.25;10.75;;;;;16.35;49.96;100721.09;5074964;27;45621;-79
2023/05/04 05:45:34;;;;;;;;;11.50;11.50;;;;;16.38;50.37;100753.34;5074942;28;45639;-78
2023/05/04 05:47:59;;;;;;;;;13.00;11.50;;;;;16.36;50.05;100759.75;5074871;27;45644;-80
2023/05/04 05:50:25;;;;;;;;;11.00;11.00;;;;;16.43;50.19;100766.13;5075826;27;45785;-78
2023/05/04 05:52:50;;;;;;;;;15.50;12.75;;;;;16.44;50.08;100751.09;5075135;28;46645;-79
2023/05/04 05:55:16;;;;;;;;;9.00;9.00;;;;;16.49;50.12;100760.28;5074634;27;46359;-79
2023/05/04 05:57:41;;;;;;;;;14.50;13.25;;;;;16.51;50.01;100758.34;5074766;27;45610;-79
2023/05/04 06:00:07;;;;;;;;;14.00;9.75;;;;;16.54;50.66;100751.91;5074460;27;45793;-87
2023/05/04 06:02:33;;;;;;;;;10.25;10.00;;;;;16.58;50.15;100748.00;5074883;27;45676;-78
2023/05/04 06:04:58;;;;;;;;;14.00;12.00;;;;;16.60;50.21;100744.28;5074317;27;46933;-76
2023/05/04 06:07:24;;;;;;;;;14.25;12.75;;;;;16.62;50.27;100737.03;5074431;27;46152;-77
2023/05/04 06:09:49;;;;;;;;;15.50;13.00;;;;;16.59;50.19;100732.03;5074707;27;45794;-74
2023/05/04 06:15:36;;;;;;;;;14.00;13.25;;;;;16.63;50.48;100714.88;5074273;28;45798;-77
2023/05/04 06:18:02;;;;;;;;;16.50;14.50;;;;;16.65;50.62;100717.38;5073258;28;45631;-74
2023/05/04 06:20:28;;;;;;;;;16.00;13.50;;;;;16.66;50.14;100711.13;5074433;27;45631;-77
2023/05/04 06:22:53;;;;;;;;;13.00;13.00;;;;;16.70;50.00;100707.19;5074217;27;46308;-77
2023/05/04 06:25:19;;;;;;;;;14.00;11.50;;;;;16.73;49.92;100707.72;5074377;27;46282;-74
2023/05/04 06:31:05;;;;;;;;;14.25;14.00;;;;;16.78;50.33;100715.25;5074235;28;45674;-77
2023/05/04 06:33:31;;;;;;;;;13.00;12.50;;;;;16.82;50.21;100718.44;5073136;28;47626;-77
2023/05/04 06:35:57;;;;;;;;;18.75;16.75;;;;;16.87;49.81;100719.66;5074153;27;46394;-79
2023/05/04 06:38:22;;;;;;;;;15.75;14.75;;;;;16.94;49.98;100719.91;5074322;27;45533;-78
2023/05/04 06:40:48;;;;;;;;;14.00;13.75;;;;;17.00;49.96;100716.69;5089943;27;45677;-79
2023/05/04 06:43:13;;;;;;;;;14.00;14.00;;;;;17.07;50.06;100718.56;5074193;27;46102;-79
2023/05/04 06:45:38;;;;;;;;;16.00;15.25;;;;;17.10;49.94;100720.94;5074176;27;45528;-77
2023/05/04 06:48:05;;;;;;;;;15.25;15.00;;;;;17.15;49.60;100720.47;5074346;27;45513;-77
2023/05/04 06:50:32;;;;;;;;;15.75;14.75;;;;;17.20;49.57;100727.00;5074519;27;45542;-77
2023/05/04 06:53:09;;;;;;;;;15.00;15.00;;;;;17.27;49.28;100713.16;5089678;27;47501;-77
2023/05/04 06:55:35;;;;;;;;;15.25;13.50;;;;;17.32;49.14;100709.09;5074030;27;46636;-78
2023/05/04 07:01:22;;;;;;;;;9.75;8.75;;;;;17.42;49.72;100696.59;5063414;28;45768;-78
2023/05/04 07:03:48;;;;;;;;;16.00;14.25;;;;;17.48;49.20;100695.16;5073811;28;46263;-75
2023/05/04 07:06:13;;;;;;;;;14.50;14.00;;;;;17.52;49.07;100701.81;5089214;27;45980;-77
2023/05/04 07:08:38;;;;;;;;;15.75;14.00;;;;;17.55;48.88;100696.22;5073566;27;45533;-77
2023/05/04 07:11:05;;;;;;;;;14.25;12.25;;;;;17.57;48.96;100699.56;5073687;27;45783;-77
2023/05/04 07:13:31;;;;;;;;;18.25;14.00;;;;;17.60;49.12;100693.97;5089218;27;47542;-72
2023/05/04 07:15:56;;;;;;;;;13.75;12.50;;;;;17.60;48.68;100691.31;5055400;28;48008;-76
2023/05/04 07:18:22;;;;;;;;;16.00;15.00;;;;;17.63;49.01;100691.03;5073880;27;45746;-75
2023/05/04 07:20:47;;;;;;;;;17.75;17.00;;;;;17.63;48.88;100691.03;5089437;27;45620;-76
2023/05/04 07:23:12;;;;;;;;;13.00;11.50;;;;;17.68;49.26;100701.16;5073271;27;47337;-76
2023/05/04 07:25:38;;;;;;;;;16.50;13.75;;;;;17.73;48.71;100704.19;5073622;27;45636;-76
2023/05/04 07:31:25;;;;;;;;;15.75;14.25;;;;;17.90;48.65;100727.19;5073470;28;45710;-76
2023/05/04 07:33:50;;;;;;;;;15.00;12.25;;;;;17.95;49.00;100719.63;5073235;27;46521;-73
2023/05/04 07:36:15;;;;;;;;;16.00;13.00;;;;;18.03;48.92;100711.72;5073613;27;45617;-73
2023/05/04 07:38:41;;;;;;;;;12.00;11.50;;;;;18.11;48.81;100719.75;5073598;27;45520;-77
2023/05/04 07:41:06;;;;;;;;;15.00;13.50;;;;;18.20;49.07;100710.84;5073303;27;45560;-75
2023/05/04 07:46:53;;;;;;;;;9.50;9.00;;;;;18.35;48.26;100697.88;5073108;28;46096;-75
2023/05/04 07:49:18;;;;;;;;;17.00;13.25;;;;;18.41;48.81;100705.16;5072125;28;45806;-76
2023/05/04 07:51:44;;;;;;;;;11.00;11.00;;;;;18.47;48.68;100707.19;5073337;27;45845;-76
2023/05/04 07:54:09;;;;;;;;;12.00;12.00;;;;;18.55;48.16;100703.81;5073409;27;45631;-77
2023/05/04 07:56:35;;;;;;;;;11.25;9.75;;;;;18.64;48.58;100698.38;5073220;28;45685;-77
2023/05/04 07:59:00;;;;;;;;;12.25;12.25;;;;;18.74;47.86;100706.22;5071963;28;45536;-74
2023/05/04 08:01:25;;;;;;;;;11.00;9.75;;;;;18.84;47.91;100691.81;5073044;27;45835;-77
2023/05/04 08:03:51;;;;;;;;;11.50;11.00;;;;;18.93;47.77;100684.72;5073186;27;45536;-75
2023/05/04 08:06:16;;;;;;;;;12.75;10.75;;;;;19.00;48.18;100687.56;5073137;27;46088;-75
2023/05/04 08:08:43;;;;;;;;;13.25;12.00;;;;;19.07;47.73;100697.38;5073109;27;45734;-77
2023/05/04 08:11:12;;;;;;;;;13.00;12.00;;;;;19.14;47.58;100701.06;5074447;27;45608;-75
2023/05/04 08:16:59;;;;;;;;;12.25;10.75;;;;;19.29;47.46;100710.06;5076280;28;45984;-76
2023/05/04 08:19:24;;;;;;;;;12.25;11.25;;;;;19.35;47.38;100700.59;5076274;27;45666;-73
2023/05/04 08:21:50;;;;;;;;;13.00;11.00;;;;;19.41;47.26;100707.09;5076832;27;45834;-75
2023/05/04 08:24:17;;;;;;;;;15.75;11.50;;;;;19.43;46.79;100710.44;5076470;27;46391;-74
2023/05/04 08:26:42;;;;;;;;;12.50;11.50;;;;;19.48;47.15;100721.44;5076288;27;45987;-76
2023/05/04 08:32:29;;;;;;;;;13.00;12.00;;;;;19.56;47.31;100700.16;5076119;28;45617;-77
2023/05/04 08:34:54;;;;;;;;;14.00;12.75;;;;;19.59;47.06;100694.53;5074655;28;48787;-75
2023/05/04 08:37:20;;;;;;;;;11.00;10.00;;;;;19.59;46.93;100690.06;5075941;27;46311;-75
2023/05/04 08:39:45;;;;;;;;;12.00;11.25;;;;;19.61;47.09;100684.53;5074699;28;45995;-77
2023/05/04 08:42:10;;;;;;;;;11.00;11.00;;;;;19.67;47.04;100694.53;5076079;27;45569;-77
2023/05/04 08:44:36;;;;;;;;;12.00;11.00;;;;;19.69;46.98;100676.59;5075792;27;46737;-76
2023/05/04 08:47:03;;;;;;;;;11.00;10.00;;;;;19.74;47.00;100684.91;5074998;28;45688;-77
2023/05/04 08:49:29;;;;;;;;;11.00;11.00;;;;;19.81;46.81;100693.03;5075863;27;45733;-75
2023/05/04 08:51:56;;;;;;;;;11.00;10.00;;;;;19.87;47.00;100682.53;5075887;28;45900;-77
2023/05/04 08:54:22;;;;;;;;;10.00;9.50;;;;;19.93;46.62;100681.88;5076017;27;45623;-75
2023/05/04 08:56:50;;;;;;;;;11.25;9.25;;;;;19.97;46.66;100677.09;5076051;27;45978;-76
2023/05/04 09:02:37;;;;;;;;;11.00;11.00;;;;;20.05;46.46;100667.25;5064583;28;45793;-74
2023/05/04 09:05:07;;;;;;;;;11.25;10.25;;;;;20.07;46.53;100680.38;5075728;27;45656;-76
2023/05/04 09:07:32;;;;;;;;;11.00;10.00;;;;;20.09;46.58;100687.19;5075477;27;46499;-75
2023/05/04 09:09:58;;;;;;;;;12.00;11.00;;;;;20.11;46.63;100689.69;5075323;27;45581;-74
2023/05/04 09:12:26;;;;;;;;;12.50;11.00;;;;;20.13;46.58;100693.81;5075623;27;45786;-77
2023/05/04 09:14:51;;;;;;;;;11.25;10.75;;;;;20.13;46.56;100678.88;5075489;27;46633;-78
2023/05/04 09:17:24;;;;;;;;;12.00;12.00;;;;;20.16;46.42;100667.88;5075116;27;45676;-76
2023/05/04 09:20:02;;;;;;;;;12.50;10.00;;;;;20.19;46.62;100671.03;5075356;27;45754;-74
2023/05/04 09:22:29;;;;;;;;;13.00;11.75;;;;;20.24;46.63;100660.75;5075352;28;45996;-77
2023/05/04 09:25:13;;;;;;;;;11.00;11.00;;;;;20.28;46.42;100654.06;5075606;27;46639;-76
2023/05/04 09:27:41;;;;;;;;;9.25;8.50;;;;;20.32;46.95;100655.41;5075338;27;45988;-75
2023/05/04 09:30:07;;;;;;;;;9.00;8.00;;;;;20.40;46.34;100658.06;5075031;27;45621;-77
2023/05/04 09:32:47;;;;;;;;;12.50;11.75;;;;;20.47;46.30;100656.34;5075196;27;45474;-77
2023/05/04 09:35:13;;;;;;;;;11.50;11.00;;;;;20.56;46.40;100653.69;5075377;27;46643;-76
2023/05/04 09:37:44;;;;;;;;;12.00;11.00;;;;;20.65;46.50;100652.63;5075045;27;46947;-77
2023/05/04 09:40:11;;;;;;;;;10.25;9.25;;;;;20.71;46.36;100652.78;5075022;27;45759;-73
2023/05/04 09:42:37;;;;;;;;;11.50;9.25;;;;;20.77;46.28;100664.56;5074950;27;45829;-74
2023/05/04 09:45:04;;;;;;;;;11.00;10.00;;;;;20.80;46.25;100662.38;5074867;27;46436;-74
2023/05/04 09:47:40;;;;;;;;;13.75;11.00;;;;;20.85;45.64;100660.03;5075157;27;45915;-74
2023/05/04 09:50:34;;;;;;;;;10.75;9.75;;;;;20.90;46.01;100655.00;5073635;28;45766;-75
2023/05/04 09:53:00;;;;;;;;;9.75;9.50;;;;;20.93;45.90;100657.34;5073238;27;46173;-77
2023/05/04 09:55:26;;;;;;;;;12.00;11.50;;;;;20.97;45.70;100656.97;5074551;27;45750;-78
2023/05/04 09:57:52;;;;;;;;;9.75;9.50;;;;;21.01;45.60;100658.28;5075084;27;45515;-78
2023/05/04 10:00:18;;;;;;;;;14.25;12.25;;;;;21.03;45.34;100658.94;5074984;27;45596;-78
2023/05/04 10:02:45;;;;;;;;;11.50;11.50;;;;;21.05;45.61;100664.94;5074541;27;45810;-78
2023/05/04 10:05:21;;;;;;;;;10.00;10.00;;;;;21.05;45.34;100665.75;5074712;27;46362;-78
2023/05/04 10:07:46;;;;;;;;;10.75;9.75;;;;;21.08;45.11;100662.75;5074608;27;47121;-77
2023/05/04 10:10:14;;;;;;;;;10.00;10.00;;;;;21.08;44.81;100657.41;5074689;27;46236;-78
2023/05/04 10:12:39;;;;;;;;;10.00;9.00;;;;;21.11;45.25;100654.38;5074711;27;45817;-77
2023/05/04 10:18:44;;;;;;;;;10.00;9.25;;;;;21.24;44.93;100648.50;5074425;28;46087;-76
2023/05/04 10:21:41;;;;;;;;;10.50;9.75;;;;;21.30;45.41;100653.97;5074701;27;45701;-76
2023/05/04 10:24:27;;;;;;;;;11.00;10.25;;;;;21.38;45.17;100660.25;5074661;28;45573;-76
2023/05/04 10:26:59;;;;;;;;;10.00;9.00;;;;;21.44;44.90;100656.84;5074471;27;45662;-76
2023/05/04 10:29:27;;;;;;;;;9.25;8.25;;;;;21.48;44.57;100645.69;5074310;27;46034;-78
2023/05/04 10:31:53;;;;;;;;;10.25;9.25;;;;;21.54;44.90;100642.28;5074607;27;45753;-78
2023/05/04 10:34:29;;;;;;;;;10.00;10.00;;;;;21.60;44.61;100624.72;5074205;27;45679;-73
2023/05/04 10:36:56;;;;;;;;;10.75;9.75;;;;;21.63;44.38;100622.56;5074359;27;45600;-76
2023/05/04 10:39:24;;;;;;;;;10.50;9.25;;;;;21.69;43.93;100616.50;5074337;27;45648;-77
2023/05/04 10:42:06;;;;;;;;;11.25;10.25;;;;;21.76;43.55;100622.75;5074088;27;45651;-75
2023/05/04 10:44:34;;;;;;;;;8.75;8.50;;;;;21.83;43.52;100619.34;5074338;27;45750;-77
2023/05/04 10:47:05;;;;;;;;;7.25;7.25;;;;;21.93;43.05;100617.25;5074312;27;45667;-77
2023/05/04 10:49:33;;;;;;;;;8.75;8.25;;;;;22.02;42.99;100625.06;5073923;27;46343;-78
2023/05/04 10:52:08;;;;;;;;;9.25;8.75;;;;;22.12;43.09;100614.94;5074046;27;45721;-75
2023/05/04 10:54:35;;;;;;;;;7.25;6.00;;;;;22.24;42.80;100619.81;5074446;27;45721;-78
2023/05/04 10:57:16;;;;;;;;;9.00;8.00;;;;;22.35;43.15;100632.69;5074054;27;45621;-78
2023/05/04 10:59:52;;;;;;;;;9.00;8.75;;;;;22.41;42.68;100629.25;5073842;27;46346;-77
2023/05/04 11:02:22;;;;;;;;;7.25;6.75;;;;;22.54;42.11;100632.94;5072452;28;45636;-79
2023/05/04 11:05:00;;;;;;;;;8.00;7.00;;;;;22.62;41.07;100644.56;5074097;28;45628;-78
2023/05/04 11:07:37;;;;;;;;;7.00;7.00;;;;;22.67;41.13;100637.63;5073934;27;46705;-79
2023/05/04 11:10:08;;;;;;;;;7.75;6.50;;;;;22.74;40.87;100648.41;5073948;27;45653;-76
2023/05/04 11:12:36;;;;;;;;;7.50;7.25;;;;;22.76;41.40;100643.72;5072447;28;45720;-78
2023/05/04 11:15:04;;;;;;;;;8.75;7.75;;;;;22.79;40.74;100654.03;5073717;27;45671;-78
2023/05/04 11:17:29;;;;;;;;;7.50;7.25;;;;;22.88;41.26;100666.28;5073917;28;47899;-78
2023/05/04 11:19:55;;;;;;;;;8.50;8.50;;;;;22.97;40.69;100654.47;5073479;27;45667;-78
2023/05/04 11:22:20;;;;;;;;;7.50;7.25;;;;;23.06;40.34;100653.31;5072472;28;45655;-75
2023/05/04 11:24:49;;;;;;;;;7.25;6.50;;;;;23.11;41.09;100658.09;5073920;27;45796;-77
2023/05/04 11:27:27;;;;;;;;;7.00;7.00;;;;;23.12;39.97;100665.94;5072167;28;46298;-78
2023/05/04 11:29:56;;;;;;;;;6.75;5.50;;;;;23.17;40.47;100676.06;5073421;27;46234;-77
2023/05/04 11:32:22;;;;;;;;;6.00;6.00;;;;;23.21;40.61;100664.00;5073408;27;45647;-78
2023/05/04 11:34:48;;;;;;;;;7.75;7.75;;;;;23.25;40.48;100674.09;5073690;27;45586;-76
2023/05/04 11:37:13;;;;;;;;;10.75;9.25;;;;;23.29;40.48;100661.19;5073693;27;46494;-76
2023/05/04 11:39:39;;;;;;;;;8.00;7.00;;;;;23.28;40.70;100663.03;5073577;27;45726;-78
2023/05/04 11:42:06;;;;;;;;;7.50;7.25;;;;;23.23;40.81;100667.28;5073232;27;46031;-76
2023/05/04 11:44:32;;;;;;;;;8.00;7.50;;;;;23.25;40.29;100671.44;5073466;27;45607;-75
2023/05/04 11:46:59;;;;;;;;;7.00;6.25;;;;;23.29;40.71;100672.69;5075541;27;45663;-76
2023/05/04 11:49:26;;;;;;;;;9.75;8.00;;;;;23.32;40.90;100679.53;5077579;27;46226;-77
2023/05/04 11:51:51;;;;;;;;;9.00;8.25;;;;;23.35;41.23;100674.63;5077067;27;45721;-77
2023/05/04 11:54:21;;;;;;;;;10.00;8.75;;;;;23.40;41.89;100666.03;5077120;27;45593;-75
2023/05/04 11:56:46;;;;;;;;;11.25;8.50;;;;;23.41;41.86;100655.13;5076542;27;47246;-76
2023/05/04 11:59:11;;;;;;;;;8.25;8.25;;;;;23.40;41.50;100668.69;5076357;27;47085;-73
2023/05/04 12:01:37;;;;;;;;;8.00;7.00;;;;;23.42;41.89;100667.50;5076781;27;45924;-76
2023/05/04 12:04:03;;;;;;;;;8.50;7.75;;;;;23.43;40.82;100676.31;5092362;27;45906;-72
2023/05/04 12:06:32;;;;;;;;;8.25;7.25;;;;;23.40;40.81;100647.31;5076572;27;46482;-75
2023/05/04 12:09:05;;;;;;;;;7.50;6.25;;;;;23.42;41.09;100629.22;5076793;27;45932;-76
2023/05/04 12:11:30;;;;;;;;;6.25;5.50;;;;;23.48;40.94;100651.75;5076889;28;45625;-75
2023/05/04 12:14:08;;;;;;;;;6.50;6.00;;;;;23.53;40.91;100668.03;5076547;27;45622;-76
2023/05/04 12:16:33;;;;;;;;;8.00;7.75;;;;;23.59;41.35;100662.72;5075222;28;47582;-72
2023/05/04 12:19:09;;;;;;;;;7.00;7.00;;;;;23.70;41.31;100670.22;5076809;27;46324;-76
2023/05/04 12:21:35;;;;;;;;;9.00;7.00;;;;;23.78;41.00;100667.44;5076595;28;45760;-72
2023/05/04 12:24:02;;;;;;;;;8.00;7.50;;;;;23.85;40.40;100659.47;5075232;28;45719;-73
2023/05/04 12:26:28;;;;;;;;;6.75;6.50;;;;;23.89;39.94;100660.72;5076026;27;46880;-75
2023/05/04 12:28:54;;;;;;;;;9.00;8.00;;;;;23.96;40.11;100664.28;5076229;28;45926;-73
2023/05/04 12:34:41;;;;;;;;;8.00;7.00;;;;;24.12;39.92;100666.69;5076199;28;45698;-74
2023/05/04 12:37:06;;;;;;;;;6.75;6.75;;;;;24.20;39.53;100658.50;5076170;27;47729;-76
2023/05/04 12:39:33;;;;;;;;;7.25;7.25;;;;;24.27;39.08;100642.47;5075861;27;46514;-74